Time;durP1;ratioP1;P1;durP2;ratioP2;P2;SDS_P1;SDS_P2;PMS_P1;PMS_P2;Temp;Humidity;BMP_temperature;BMP_pressure;BME280_temperature;BME280_humidity;BME280_pressure;Samples;Min_cycle;Max_cycle;Signal;HPM_P1;HPM_P2
2023/03/31 00:02:51;;;;;;;;;;;;;;;15.80;54.67;100947.53;5050571;28;19921;-78
2023/03/31 00:05:44;;;;;;;;;;;;;;;15.78;54.63;100941.63;5045602;28;19917;-78
2023/03/31 00:08:39;;;;;;;;;;;;;;;15.68;55.05;100942.88;5022556;28;19918;-77
2023/03/31 00:11:31;;;;;;;;;;;;;;;15.67;55.40;100929.50;5018328;28;19917;-77
2023/03/31 00:14:23;;;;;;;;;;;;;;;15.71;55.19;100931.22;5036230;28;19925;-77
2023/03/31 00:17:15;;;;;;;;;;;;;;;15.69;55.18;100929.97;5046975;28;19917;-77
2023/03/31 00:20:08;;;;;;;;;;;;;;;15.59;55.80;100933.19;5041104;28;19921;-77
2023/03/31 00:23:00;;;;;;;;;;;;;;;15.53;56.05;100923.59;5033736;28;19916;-78
2023/03/31 00:25:52;;;;;;;;;;;;;;;15.52;55.91;100916.50;5050328;28;19916;-77
2023/03/31 00:28:44;;;;;;;;;;;;;;;15.56;55.90;100911.91;5058120;28;19916;-77
2023/03/31 00:31:36;;;;;;;;;;;;;;;15.49;56.15;100912.47;5048050;28;19917;-77
2023/03/31 00:34:29;;;;;;;;;;;;;;;15.43;56.65;100918.53;5051406;28;19917;-77
2023/03/31 00:37:21;;;;;;;;;;;;;;;15.54;56.08;100908.75;5107936;22;19924;-79
2023/03/31 00:40:13;;;;;;;;;;;;;;;15.31;56.79;100911.91;5076633;28;20384;-79
2023/03/31 00:43:02;;;;;;;;;;;;;;;15.08;57.63;100909.94;5071131;28;19921;-79
2023/03/31 00:45:54;;;;;;;;;;;;;;;14.94;58.36;100900.09;5083056;28;19920;-79
2023/03/31 00:48:56;;;;;;;;;;;;;;;15.01;58.26;100896.81;5082695;28;19916;-80
2023/03/31 00:51:49;;;;;;;;;;;;;;;15.23;57.46;100884.63;5086448;28;19916;-79
2023/03/31 00:54:41;;;;;;;;;;;;;;;15.20;57.58;100888.81;5079771;28;20307;-79
2023/03/31 00:57:34;;;;;;;;;;;;;;;15.25;57.24;100882.31;5040707;28;19940;-79
2023/03/31 01:00:24;;;;;;;;;;;;;;;15.30;56.89;100882.91;5059563;28;19920;-80
2023/03/31 01:03:18;;;;;;;;;;;;;;;15.12;57.40;100876.06;5057712;28;19924;-79
2023/03/31 01:06:10;;;;;;;;;;;;;;;15.10;57.47;100875.59;5056819;28;19917;-80
2023/03/31 01:09:05;;;;;;;;;;;;;;;15.26;57.21;100864.75;5057173;28;19916;-79
2023/03/31 01:11:57;;;;;;;;;;;;;;;15.36;56.72;100867.81;5063777;28;19916;-79
2023/03/31 01:14:47;;;;;;;;;;;;;;;15.24;56.90;100861.53;5079145;28;19916;-79
2023/03/31 01:17:39;;;;;;;;;;;;;;;14.92;57.92;100860.53;5064378;28;19924;-79
2023/03/31 01:20:44;;;;;;;;;;;;;;;14.70;58.82;100852.72;5061449;28;19921;-79
2023/03/31 01:23:46;;;;;;;;;;;;;;;14.61;59.06;100843.81;5062151;28;19916;-79
2023/03/31 01:26:41;;;;;;;;;;;;;;;14.67;59.05;100842.47;5062501;28;19917;-79
2023/03/31 01:29:34;;;;;;;;;;;;;;;14.68;58.76;100846.81;5074554;28;19916;-79
2023/03/31 01:32:33;;;;;;;;;;;;;;;14.47;59.49;100841.38;5072639;28;19916;-79
2023/03/31 01:35:35;;;;;;;;;;;;;;;14.50;59.51;100846.97;5058241;28;20380;-80
2023/03/31 01:38:36;;;;;;;;;;;;;;;14.67;58.78;100843.25;5058645;28;20376;-79
2023/03/31 01:41:35;;;;;;;;;;;;;;;14.90;58.07;100847.16;5071228;28;19916;-79
2023/03/31 01:44:38;;;;;;;;;;;;;;;14.94;57.81;100845.34;5056927;28;19935;-79
2023/03/31 01:47:33;;;;;;;;;;;;;;;14.96;57.93;100845.00;5050599;28;19917;-79
2023/03/31 01:50:42;;;;;;;;;;;;;;;15.10;57.02;100839.19;5078373;28;19920;-79
2023/03/31 01:53:41;;;;;;;;;;;;;;;15.16;56.57;100829.59;5077408;28;20125;-80
2023/03/31 01:56:35;;;;;;;;;;;;;;;15.07;56.92;100824.25;5076628;28;19916;-79
2023/03/31 01:59:36;;;;;;;;;;;;;;;15.12;57.11;100821.28;5080535;28;19921;-80
2023/03/31 02:02:41;;;;;;;;;;;;;;;15.20;56.74;100814.88;5057719;28;19917;-79
2023/03/31 02:05:37;;;;;;;;;;;;;;;15.19;55.98;100818.75;5074829;28;20283;-79
2023/03/31 02:08:34;;;;;;;;;;;;;;;15.05;56.40;100814.75;5046118;28;19917;-79
2023/03/31 02:11:26;;;;;;;;;;;;;;;14.58;58.47;100812.44;5065676;28;19916;-79
2023/03/31 02:14:19;;;;;;;;;;;;;;;14.50;59.07;100811.41;5061019;28;20391;-79
2023/03/31 02:17:14;;;;;;;;;;;;;;;14.81;57.84;100801.88;5077195;28;19916;-79
2023/03/31 02:20:08;;;;;;;;;;;;;;;14.93;57.52;100791.69;5061803;28;19921;-79
2023/03/31 02:23:00;;;;;;;;;;;;;;;14.98;57.41;100787.97;5037282;28;19917;-79
2023/03/31 02:25:54;;;;;;;;;;;;;;;14.84;57.90;100793.75;5049506;28;20380;-79
2023/03/31 02:28:46;;;;;;;;;;;;;;;14.77;58.19;100790.81;5053252;28;19917;-79
2023/03/31 02:31:54;;;;;;;;;;;;;;;14.68;58.22;100795.56;5068906;28;19916;-79
2023/03/31 02:34:46;;;;;;;;;;;;;;;14.57;58.84;100796.38;5069681;28;19917;-79
2023/03/31 02:37:37;;;;;;;;;;;;;;;14.82;58.20;100784.31;5068932;28;19916;-79
2023/03/31 02:40:29;;;;;;;;;;;;;;;14.93;57.65;100788.19;5080694;28;20307;-79
2023/03/31 02:43:21;;;;;;;;;;;;;;;14.96;57.16;100790.22;5065172;28;19917;-79
2023/03/31 02:46:13;;;;;;;;;;;;;;;14.96;56.88;100791.03;5063462;28;19917;-80
2023/03/31 02:49:07;;;;;;;;;;;;;;;14.88;57.40;100788.41;5055293;28;19921;-79
2023/03/31 02:52:15;;;;;;;;;;;;;;;14.93;57.24;100791.69;5061952;28;19916;-79
2023/03/31 02:55:17;;;;;;;;;;;;;;;14.93;57.19;100796.41;5074688;28;19917;-79
2023/03/31 02:58:24;;;;;;;;;;;;;;;14.94;56.74;100792.50;5076545;28;19917;-79
2023/03/31 03:01:28;;;;;;;;;;;;;;;14.93;56.35;100799.16;5076227;28;19921;-79
2023/03/31 03:04:50;;;;;;;;;;;;;;;14.75;57.12;100801.28;5057257;28;20387;-79
2023/03/31 03:07:47;;;;;;;;;;;;;;;14.88;56.53;100788.41;5040897;28;19917;-80
2023/03/31 03:11:00;;;;;;;;;;;;;;;14.86;56.75;100780.53;5043480;28;20307;-79
2023/03/31 03:13:57;;;;;;;;;;;;;;;14.83;56.84;100780.44;5019008;28;19917;-80
2023/03/31 03:16:50;;;;;;;;;;;;;;;14.88;57.01;100772.75;5069036;28;19916;-79
2023/03/31 03:19:41;;;;;;;;;;;;;;;14.91;56.76;100772.09;5075579;28;19920;-79
2023/03/31 03:22:32;;;;;;;;;;;;;;;14.92;56.61;100772.91;5075581;28;20102;-79
2023/03/31 03:25:24;;;;;;;;;;;;;;;14.93;56.62;100760.81;5064293;28;19921;-79
2023/03/31 03:28:16;;;;;;;;;;;;;;;14.87;57.01;100749.28;5055224;28;19917;-79
2023/03/31 03:31:08;;;;;;;;;;;;;;;14.91;57.05;100757.59;5063891;28;19916;-79
2023/03/31 03:34:01;;;;;;;;;;;;;;;14.78;57.53;100772.44;5060950;28;19920;-79
2023/03/31 03:36:53;;;;;;;;;;;;;;;14.68;58.30;100764.69;5057359;28;20315;-79
2023/03/31 03:39:45;;;;;;;;;;;;;;;14.75;57.96;100756.69;5065096;28;20303;-79
2023/03/31 03:42:37;;;;;;;;;;;;;;;14.79;57.82;100746.63;5059108;28;20300;-80
2023/03/31 03:45:29;;;;;;;;;;;;;;;14.78;58.02;100740.38;5051289;28;19995;-79
2023/03/31 03:48:21;;;;;;;;;;;;;;;14.75;58.08;100740.25;5041527;28;19916;-79
2023/03/31 03:51:13;;;;;;;;;;;;;;;14.73;58.09;100748.81;5059666;28;19916;-79
2023/03/31 03:54:05;;;;;;;;;;;;;;;14.79;57.95;100741.16;5071449;28;19920;-79
2023/03/31 03:56:57;;;;;;;;;;;;;;;14.77;57.93;100733.31;5073555;28;19917;-79
2023/03/31 03:59:49;;;;;;;;;;;;;;;14.81;57.82;100727.94;5054902;28;20339;-79
2023/03/31 04:02:41;;;;;;;;;;;;;;;14.78;57.87;100737.63;5039145;28;19917;-79
2023/03/31 04:05:33;;;;;;;;;;;;;;;14.77;58.12;100743.47;5064767;28;19917;-79
2023/03/31 04:08:25;;;;;;;;;;;;;;;14.79;58.23;100741.16;5073070;28;19928;-79
2023/03/31 04:11:19;;;;;;;;;;;;;;;14.80;58.22;100742.78;5050111;28;20379;-79
2023/03/31 04:14:11;;;;;;;;;;;;;;;14.78;58.28;100745.06;5054680;28;19916;-79
2023/03/31 04:17:03;;;;;;;;;;;;;;;14.79;58.15;100743.91;5061392;28;20395;-79
2023/03/31 04:19:55;;;;;;;;;;;;;;;14.75;58.22;100743.00;5075272;28;19924;-79
2023/03/31 04:22:47;;;;;;;;;;;;;;;14.75;58.20;100741.06;5061503;28;19916;-79
2023/03/31 04:25:39;;;;;;;;;;;;;;;14.77;58.17;100741.53;5066193;28;19916;-79
2023/03/31 04:28:33;;;;;;;;;;;;;;;14.72;58.33;100730.00;5075084;28;20299;-79
2023/03/31 04:31:28;;;;;;;;;;;;;;;14.71;58.42;100728.41;5059846;28;19921;-80
2023/03/31 04:34:17;;;;;;;;;;;;;;;14.72;58.46;100735.47;5062195;28;19917;-79
2023/03/31 04:37:09;;;;;;;;;;;;;;;14.72;58.33;100738.22;5068021;28;19916;-79
2023/03/31 04:40:06;;;;;;;;;;;;;;;14.73;58.46;100720.66;5056096;28;20375;-79
2023/03/31 04:42:58;;;;;;;;;;;;;;;14.73;58.54;100710.47;5070383;28;20391;-79
2023/03/31 04:45:50;;;;;;;;;;;;;;;14.66;58.74;100720.41;5078568;28;19917;-79
2023/03/31 04:48:39;;;;;;;;;;;;;;;14.63;58.80;100713.69;5078318;28;19917;-79
2023/03/31 04:51:31;;;;;;;;;;;;;;;14.42;59.42;100722.03;5060846;28;19917;-80
2023/03/31 04:54:23;;;;;;;;;;;;;;;14.18;60.93;100724.66;5066501;28;19917;-79
2023/03/31 04:57:15;;;;;;;;;;;;;;;14.38;60.51;100721.09;5060122;28;19920;-80
2023/03/31 05:00:10;;;;;;;;;;;;;;;14.29;60.62;100739.50;5065894;28;19921;-78
2023/03/31 05:03:02;;;;;;;;;;;;;;;14.07;61.82;100743.44;5050233;28;19917;-78
2023/03/31 05:05:54;;;;;;;;;;;;;;;14.18;61.56;100727.41;5049073;28;19917;-78
2023/03/31 05:08:45;;;;;;;;;;;;;;;14.37;60.87;100713.22;5057535;28;20581;-79
2023/03/31 05:11:38;;;;;;;;;;;;;;;14.18;61.25;100711.00;5056435;28;20295;-78
2023/03/31 05:14:29;;;;;;;;;;;;;;;14.25;61.34;100715.91;5053529;28;20303;-78
2023/03/31 05:17:26;;;;;;;;;;;;;;;14.40;60.84;100712.53;5069148;28;19920;-78
2023/03/31 05:20:18;;;;;;;;;;;;;;;14.47;60.47;100704.56;5067410;28;19921;-79
2023/03/31 05:23:08;;;;;;;;;;;;;;;14.30;60.96;100708.28;5064033;28;19916;-78
2023/03/31 05:25:58;;;;;;;;;;;;;;;14.36;60.76;100701.50;5065567;28;19916;-78
2023/03/31 05:28:50;;;;;;;;;;;;;;;14.43;60.65;100690.75;5050935;28;19942;-79
2023/03/31 05:31:42;;;;;;;;;;;;;;;14.43;60.63;100692.69;5053028;28;19917;-79
2023/03/31 05:34:34;;;;;;;;;;;;;;;14.43;60.75;100685.28;5053877;28;19920;-78
2023/03/31 05:37:27;;;;;;;;;;;;;;;14.35;60.39;100683.44;5048745;28;19921;-79
2023/03/31 05:40:19;;;;;;;;;;;;;;;14.24;61.04;100692.44;5063768;28;19921;-79
2023/03/31 05:43:11;;;;;;;;;;;;;;;14.17;61.12;100694.94;5060280;28;20387;-80
2023/03/31 05:46:03;;;;;;;;;;;;;;;13.96;61.90;100703.22;5043517;28;19917;-80
2023/03/31 05:48:55;;;;;;;;;;;;;;;13.98;62.23;100695.44;5037407;28;19921;-80
2023/03/31 05:51:47;;;;;;;;;;;;;;;13.96;62.40;100701.28;5041219;28;19921;-80
2023/03/31 05:54:39;;;;;;;;;;;;;;;14.13;61.92;100697.53;5037856;28;19917;-81
2023/03/31 05:57:31;;;;;;;;;;;;;;;14.19;61.29;100689.91;5057635;28;19921;-80
2023/03/31 06:00:20;;;;;;;;;;;;;;;14.08;61.65;100673.13;5064352;28;19920;-80
2023/03/31 06:03:12;;;;;;;;;;;;;;;13.98;61.86;100682.59;5058563;28;19916;-80
2023/03/31 06:06:04;;;;;;;;;;;;;;;14.11;61.45;100683.41;5057398;28;19917;-80
2023/03/31 06:08:56;;;;;;;;;;;;;;;14.23;61.08;100682.63;5063899;28;19917;-80
2023/03/31 06:11:46;;;;;;;;;;;;;;;14.27;61.00;100680.81;5063628;28;19920;-80
2023/03/31 06:14:37;;;;;;;;;;;;;;;14.24;61.11;100685.03;5072477;28;20323;-80
2023/03/31 06:17:29;;;;;;;;;;;;;;;14.31;60.72;100684.47;5065107;28;20012;-80
2023/03/31 06:20:21;;;;;;;;;;;;;;;14.41;60.25;100675.84;5066376;28;20383;-80
2023/03/31 06:23:13;;;;;;;;;;;;;;;14.45;59.77;100666.59;5068556;28;19920;-80
2023/03/31 06:26:09;;;;;;;;;;;;;;;14.49;59.90;100667.50;5054218;28;19920;-80
2023/03/31 06:29:01;;;;;;;;;;;;;;;14.53;59.68;100651.19;5055727;28;19917;-80
2023/03/31 06:31:53;;;;;;;;;;;;;;;14.50;59.73;100640.94;5075479;28;19917;-80
2023/03/31 06:34:45;;;;;;;;;;;;;;;14.50;59.87;100643.69;5075383;28;19921;-80
2023/03/31 06:37:35;;;;;;;;;;;;;;;14.54;59.86;100639.13;5092720;22;20222;-88
2023/03/31 06:40:27;;;;;;;;;;;;;;;14.57;59.71;100632.16;5075406;28;19925;-88
2023/03/31 06:43:19;;;;;;;;;;;;;;;14.59;59.77;100638.06;5077254;28;20380;-87
2023/03/31 06:46:11;;;;;;;;;;;;;;;14.53;59.83;100632.03;5076600;28;19916;-86
2023/03/31 06:49:03;;;;;;;;;;;;;;;14.58;59.60;100631.81;5043025;28;19917;-87
2023/03/31 06:51:55;;;;;;;;;;;;;;;14.54;59.64;100631.72;5055356;28;19916;-87
2023/03/31 06:54:44;;;;;;;;;;;;;;;14.51;59.76;100621.47;5061041;28;19917;-86
2023/03/31 06:57:36;;;;;;;;;;;;;;;14.55;59.81;100625.09;5060018;28;19917;-87
2023/03/31 07:00:28;;;;;;;;;;;;;;;14.55;59.89;100625.09;5055379;28;19921;-85
2023/03/31 07:03:21;;;;;;;;;;;;;;;14.59;59.78;100638.06;5036946;28;19916;-86
2023/03/31 07:06:13;;;;;;;;;;;;;;;14.60;59.90;100628.72;5035433;28;19917;-86
2023/03/31 07:09:05;;;;;;;;;;;;;;;14.66;59.66;100611.75;5029478;28;19917;-86
2023/03/31 07:11:57;;;;;;;;;;;;;;;14.68;59.70;100608.66;5046011;28;20380;-86
2023/03/31 07:14:49;;;;;;;;;;;;;;;14.62;59.83;100610.03;5043413;28;19917;-85
2023/03/31 07:17:40;;;;;;;;;;;;;;;14.58;60.16;100611.88;5034970;28;19917;-86
2023/03/31 07:20:32;;;;;;;;;;;;;;;14.63;60.12;100611.66;5026176;28;19921;-87
2023/03/31 07:23:24;;;;;;;;;;;;;;;14.65;59.98;100603.88;5026317;28;19916;-86
2023/03/31 07:26:16;;;;;;;;;;;;;;;14.64;59.90;100613.22;5052421;28;19916;-86
2023/03/31 07:29:03;;;;;;;;;;;;;;;14.67;59.99;100607.88;5054153;28;19916;-86
2023/03/31 07:31:55;;;;;;;;;;;;;;;14.62;60.12;100601.84;5036769;28;19917;-87
2023/03/31 07:34:47;;;;;;;;;;;;;;;14.63;59.81;100600.69;5033644;28;20384;-85
2023/03/31 07:37:42;;;;;;;;;;;;;;;14.63;59.93;100601.47;5011335;28;20296;-87
2023/03/31 07:40:34;;;;;;;;;;;;;;;14.59;60.38;100595.09;5027777;28;19921;-87
2023/03/31 07:43:21;;;;;;;;;;;;;;;14.62;60.28;100604.56;5020900;28;19917;-88
2023/03/31 07:46:14;;;;;;;;;;;;;;;14.65;59.91;100607.41;5032368;28;19917;-87
2023/03/31 07:49:06;;;;;;;;;;;;;;;14.69;59.86;100596.56;5026098;28;19917;-86
2023/03/31 07:51:58;;;;;;;;;;;;;;;14.69;59.97;100589.16;5051535;28;19920;-86
2023/03/31 07:54:50;;;;;;;;;;;;;;;14.71;59.95;100580.59;5057012;28;19921;-87
2023/03/31 07:57:42;;;;;;;;;;;;;;;14.67;60.23;100585.97;5053157;28;19917;-85
2023/03/31 08:00:34;;;;;;;;;;;;;;;14.70;60.05;100579.00;5061595;28;19921;-85
2023/03/31 08:03:26;;;;;;;;;;;;;;;14.67;59.91;100576.97;5046253;28;20342;-84
2023/03/31 08:06:21;;;;;;;;;;;;;;;14.73;59.71;100579.09;5061639;28;19916;-84
2023/03/31 08:09:14;;;;;;;;;;;;;;;14.70;60.07;100582.53;5027439;28;20392;-83
2023/03/31 08:12:06;;;;;;;;;;;;;;;14.75;60.04;100592.44;5038816;28;19917;-82
2023/03/31 08:14:56;;;;;;;;;;;;;;;14.75;60.21;100585.03;5022862;28;19917;-84
2023/03/31 08:17:48;;;;;;;;;;;;;;;14.71;60.46;100591.53;5038448;28;19917;-84
2023/03/31 08:20:40;;;;;;;;;;;;;;;14.76;59.97;100581.16;5052311;28;20392;-82
2023/03/31 08:23:32;;;;;;;;;;;;;;;14.74;60.33;100569.75;5054576;28;19917;-83
2023/03/31 08:26:24;;;;;;;;;;;;;;;14.74;60.50;100569.75;5046547;28;19917;-83
2023/03/31 08:29:16;;;;;;;;;;;;;;;14.76;60.45;100572.94;5039042;28;19917;-85
2023/03/31 08:32:05;;;;;;;;;;;;;;;14.77;60.20;100577.28;5041796;28;19921;-83
2023/03/31 08:34:55;;;;;;;;;;;;;;;14.78;59.88;100576.13;5041693;28;19921;-84
2023/03/31 08:37:44;;;;;;;;;;;;;;;14.81;59.89;100566.44;5041740;28;20297;-83
2023/03/31 08:40:36;;;;;;;;;;;;;;;14.83;60.23;100558.69;5049696;28;20392;-82
2023/03/31 08:43:31;;;;;;;;;;;;;;;14.86;60.24;100538.81;5034895;28;19918;-85
2023/03/31 08:46:23;;;;;;;;;;;;;;;14.88;60.00;100548.25;5051655;28;19917;-85
2023/03/31 08:49:16;;;;;;;;;;;;;;;14.89;60.51;100546.31;5032208;28;19917;-84
2023/03/31 08:52:08;;;;;;;;;;;;;;;14.88;60.63;100544.75;5048151;28;19917;-83
2023/03/31 08:55:00;;;;;;;;;;;;;;;14.82;61.29;100546.13;5037473;28;19921;-83
2023/03/31 08:57:59;;;;;;;;;;;;;;;14.86;60.92;100555.22;5041211;28;19917;-83
2023/03/31 09:00:59;;;;;;;;;;;;;;;14.78;61.45;100569.88;5031817;28;20388;-82
2023/03/31 09:03:51;;;;;;;;;;;;;;;14.85;60.99;100570.06;5031666;28;19921;-83
2023/03/31 09:06:44;;;;;;;;;;;;;;;14.83;61.43;100562.19;5034149;28;19917;-83
2023/03/31 09:09:50;;;;;;;;;;;;;;;14.84;61.45;100571.19;5030999;28;19917;-83
2023/03/31 09:12:42;;;;;;;;;;;;;;;14.88;61.05;100569.38;5048818;28;19917;-82
2023/03/31 09:15:51;;;;;;;;;;;;;;;14.89;61.17;100570.94;5041826;28;19917;-81
2023/03/31 09:18:42;;;;;;;;;;;;;;;14.93;60.87;100556.22;5027627;28;19918;-82
2023/03/31 09:21:35;;;;;;;;;;;;;;;14.97;60.85;100535.22;5044382;28;19921;-83
2023/03/31 09:24:29;;;;;;;;;;;;;;;15.03;60.63;100524.81;5038422;28;19917;-81
2023/03/31 09:27:19;;;;;;;;;;;;;;;15.02;61.22;100517.75;5016353;28;19917;-81
2023/03/31 09:30:22;;;;;;;;;;;;;;;15.06;61.05;100509.63;5017668;28;20385;-82
2023/03/31 09:33:15;;;;;;;;;;;;;;;15.07;60.84;100514.75;5024470;28;19921;-83
2023/03/31 09:36:10;;;;;;;;;;;;;;;15.12;61.16;100506.28;5030614;28;19917;-82
2023/03/31 09:39:02;;;;;;;;;;;;;;;15.12;61.34;100509.03;5027720;28;19917;-81
2023/03/31 09:41:54;;;;;;;;;;;;;;;15.12;61.25;100500.00;5040576;28;19920;-82
2023/03/31 09:44:50;;;;;;;;;;;;;;;15.16;61.24;100490.72;5046104;28;19917;-81
2023/03/31 09:47:46;;;;;;;;;;;;;;;15.09;61.85;100504.22;5041921;28;19916;-81
2023/03/31 09:50:41;;;;;;;;;;;;;;;15.15;61.55;100494.63;5035817;28;20288;-81
2023/03/31 09:53:34;;;;;;;;;;;;;;;15.10;61.95;100488.59;5033874;28;19918;-84
2023/03/31 09:56:56;;;;;;;;;;;;;;;15.16;61.67;100479.78;5030991;28;19917;-80
2023/03/31 09:59:45;;;;;;;;;;;;;;;15.24;61.30;100472.53;5009859;28;19921;-82
2023/03/31 10:02:37;;;;;;;;;;;;;;;15.24;61.51;100462.38;5027035;28;19921;-83
2023/03/31 10:05:41;;;;;;;;;;;;;;;15.22;61.63;100455.66;5037710;28;20393;-82
2023/03/31 10:08:40;;;;;;;;;;;;;;;15.22;61.66;100450.97;5034186;28;19917;-84
2023/03/31 10:11:32;;;;;;;;;;;;;;;15.26;61.73;100451.06;5021830;28;19917;-84
2023/03/31 10:14:25;;;;;;;;;;;;;;;15.31;61.39;100437.91;5025955;28;19918;-82
2023/03/31 10:17:18;;;;;;;;;;;;;;;15.34;61.13;100431.69;5020363;28;19916;-82
2023/03/31 10:20:19;;;;;;;;;;;;;;;15.37;61.37;100435.69;5039278;28;19921;-81
2023/03/31 10:23:20;;;;;;;;;;;;;;;15.39;61.46;100436.91;5027519;28;20300;-82
2023/03/31 10:26:15;;;;;;;;;;;;;;;15.40;60.94;100427.56;5015120;28;19918;-82
2023/03/31 10:29:11;;;;;;;;;;;;;;;15.47;60.51;100426.13;5014946;28;19917;-81
2023/03/31 10:32:10;;;;;;;;;;;;;;;15.48;60.34;100423.06;5006707;28;19917;-79
2023/03/31 10:35:07;;;;;;;;;;;;;;;15.53;60.35;100443.94;5018789;28;19917;-80
2023/03/31 10:38:00;;;;;;;;;;;;;;;15.54;60.09;100440.84;5025655;28;20400;-81
2023/03/31 10:40:56;;;;;;;;;;;;;;;15.57;60.18;100434.66;5033646;28;19921;-80
2023/03/31 10:43:52;;;;;;;;;;;;;;;15.62;59.86;100436.31;5022973;28;19917;-80
2023/03/31 10:46:47;;;;;;;;;;;;;;;15.64;59.78;100436.78;5033056;28;19917;-80
2023/03/31 10:49:43;;;;;;;;;;;;;;;15.66;59.58;100432.50;5038089;28;19921;-80
2023/03/31 10:52:42;;;;;;;;;;;;;;;15.69;59.61;100422.78;5017268;28;19917;-85
2023/03/31 10:55:34;;;;;;;;;;;;;;;15.69;59.81;100411.81;5000618;28;20293;-84
2023/03/31 10:58:45;;;;;;;;;;;;;;;15.70;60.02;100407.91;5017813;28;19917;-82
2023/03/31 11:01:53;;;;;;;;;;;;;;;15.72;59.90;100387.22;5030136;28;20392;-83
2023/03/31 11:04:55;;;;;;;;;;;;;;;15.69;60.12;100365.22;5019701;28;19917;-84
2023/03/31 11:07:48;;;;;;;;;;;;;;;16.72;58.30;100353.59;5021112;28;19918;-87
2023/03/31 11:10:40;;;;;;;;;;;;;;;20.67;48.17;100358.06;5041135;28;19917;-81
2023/03/31 11:13:46;;;;;;;;;;;;;;;24.77;37.59;100359.44;5007259;28;19917;-88
2023/03/31 11:16:45;;;;;;;;;;;;;;;24.05;37.40;100353.25;5055377;28;20307;-88
2023/03/31 11:19:37;;;;;;;;;;;;;;;24.42;35.98;100344.06;5060001;28;19916;-88
2023/03/31 11:22:30;;;;;;;;;;;;;;;24.28;36.87;100329.16;5044562;28;20292;-87
2023/03/31 11:25:23;;;;;;;;;;;;;;;25.79;33.72;100318.75;5037855;28;19924;-88
2023/03/31 11:28:44;;;;;;;;;;;;;;;25.03;34.02;100308.59;5049839;28;19917;-86
2023/03/31 11:31:49;;;;;;;;;;;;;;;24.46;34.19;100303.09;4995541;28;20376;-88
2023/03/31 11:34:59;;;;;;;;;;;;;;;22.90;37.37;100294.53;5025985;28;19917;-88
2023/03/31 11:38:00;;;;;;;;;;;;;;;24.18;35.05;100279.28;5024167;28;19921;-88
2023/03/31 11:40:52;;;;;;;;;;;;;;;26.54;31.95;100273.31;5023945;28;19921;-89
2023/03/31 11:43:48;;;;;;;;;;;;;;;25.75;32.31;100273.44;5039054;28;20296;-88
2023/03/31 11:46:58;;;;;;;;;;;;;;;22.93;37.83;100254.09;5024321;28;19929;-87
2023/03/31 11:49:58;;;;;;;;;;;;;;;21.03;41.01;100240.75;5040063;28;19921;-88
2023/03/31 11:52:55;;;;;;;;;;;;;;;21.66;39.36;100244.56;5051735;28;19917;-89
2023/03/31 11:55:49;;;;;;;;;;;;;;;21.45;40.55;100230.81;5036120;28;19917;-88
2023/03/31 11:59:04;;;;;;;;;;;;;;;22.01;39.15;100227.81;5034009;28;20380;-87
2023/03/31 12:02:02;;;;;;;;;;;;;;;22.34;38.92;100206.25;5020547;28;19933;-87
2023/03/31 12:04:55;;;;;;;;;;;;;;;28.00;29.07;100214.31;5039890;28;19917;-88
2023/03/31 12:07:55;;;;;;;;;;;;;;;25.57;31.34;100208.19;5036968;28;19917;-87
2023/03/31 12:10:50;;;;;;;;;;;;;;;25.31;31.88;100209.88;5044984;28;19933;-89
2023/03/31 12:14:03;;;;;;;;;;;;;;;23.94;34.89;100206.16;5038035;28;20327;-86
2023/03/31 12:16:59;;;;;;;;;;;;;;;22.08;38.79;100202.88;5025001;28;19917;-82
2023/03/31 12:19:59;;;;;;;;;;;;;;;21.67;39.55;100196.34;5014494;28;19925;-83
2023/03/31 12:22:49;;;;;;;;;;;;;;;21.27;40.43;100170.81;5034831;28;19929;-83
2023/03/31 12:25:46;;;;;;;;;;;;;;;20.62;41.56;100176.06;5029841;28;19917;-80
2023/03/31 12:28:39;;;;;;;;;;;;;;;20.23;42.29;100168.53;5022559;28;19917;-82
2023/03/31 12:31:32;;;;;;;;;;;;;;;19.99;42.57;100152.75;5051837;28;20135;-83
2023/03/31 12:34:25;;;;;;;;;;;;;;;19.86;43.00;100148.78;5045777;28;20392;-82
2023/03/31 12:37:32;;;;;;;;;;;;;;;19.83;43.33;100138.53;5044124;28;19917;-83
2023/03/31 12:40:39;;;;;;;;;;;;;;;19.71;43.84;100130.63;5094299;22;19925;-82
2023/03/31 12:43:45;;;;;;;;;;;;;;;19.47;44.16;100124.63;5055550;28;19921;-83
2023/03/31 12:46:56;;;;;;;;;;;;;;;19.37;44.30;100122.59;5041566;28;19916;-82
2023/03/31 12:49:53;;;;;;;;;;;;;;;19.39;44.18;100117.50;5048506;28;19928;-82
2023/03/31 12:53:01;;;;;;;;;;;;;;;19.18;44.18;100109.94;5046601;28;19917;-83
2023/03/31 12:55:56;;;;;;;;;;;;;;;19.10;44.15;100107.53;5041498;28;19917;-82
2023/03/31 12:58:48;;;;;;;;;;;;;;;19.00;44.40;100100.00;5046819;28;19917;-83
2023/03/31 13:01:57;;;;;;;;;;;;;;;19.01;44.88;100096.06;5051494;28;19921;-83
2023/03/31 13:04:49;;;;;;;;;;;;;;;18.93;45.12;100081.50;5039710;28;19921;-83
2023/03/31 13:07:41;;;;;;;;;;;;;;;18.91;45.36;100063.75;5046923;28;19916;-82
2023/03/31 13:10:51;;;;;;;;;;;;;;;18.84;45.30;100059.03;5052972;28;19917;-82
2023/03/31 13:14:02;;;;;;;;;;;;;;;18.72;45.63;100068.41;5049338;28;20319;-83
2023/03/31 13:16:57;;;;;;;;;;;;;;;18.71;45.75;100050.28;5052006;28;20388;-82
2023/03/31 13:19:49;;;;;;;;;;;;;;;18.63;45.54;100042.38;5056770;28;19921;-82
2023/03/31 13:22:43;;;;;;;;;;;;;;;18.58;45.83;100034.50;5046447;28;19920;-82
2023/03/31 13:25:40;;;;;;;;;;;;;;;18.49;46.14;100032.03;5055949;28;20360;-82
2023/03/31 13:28:36;;;;;;;;;;;;;;;18.58;45.68;100043.53;5054089;28;19921;-83
2023/03/31 13:31:45;;;;;;;;;;;;;;;18.46;46.53;100038.31;5043169;28;19917;-82
2023/03/31 13:34:37;;;;;;;;;;;;;;;18.48;45.93;100024.19;5044161;28;19917;-82
2023/03/31 13:37:56;;;;;;;;;;;;;;;18.39;46.42;100019.78;5047185;28;19917;-82
2023/03/31 13:40:49;;;;;;;;;;;;;;;18.33;46.49;100007.59;4992970;28;19925;-82
2023/03/31 13:43:57;;;;;;;;;;;;;;;18.31;46.79;99992.63;5039118;28;19917;-82
2023/03/31 13:46:49;;;;;;;;;;;;;;;18.27;46.47;99987.09;5035794;28;20315;-82
2023/03/31 13:49:39;;;;;;;;;;;;;;;18.31;46.27;99978.84;5045623;28;20356;-82
2023/03/31 13:52:47;;;;;;;;;;;;;;;18.29;46.64;99983.94;5048428;28;19917;-82
2023/03/31 13:55:43;;;;;;;;;;;;;;;18.28;46.77;99976.88;5050628;28;20307;-82
2023/03/31 13:58:36;;;;;;;;;;;;;;;18.21;47.13;99976.81;5043357;28;19917;-82
2023/03/31 14:01:44;;;;;;;;;;;;;;;18.21;47.11;99965.81;5033137;28;19921;-82
2023/03/31 14:04:46;;;;;;;;;;;;;;;18.12;46.73;99973.63;5037636;28;19917;-82
2023/03/31 14:07:48;;;;;;;;;;;;;;;18.12;46.79;99976.38;5028403;28;19917;-82
2023/03/31 14:10:40;;;;;;;;;;;;;;;18.15;46.74;99970.88;5039265;28;19917;-82
2023/03/31 14:13:32;;;;;;;;;;;;;;;18.21;46.78;99957.56;5052682;28;19917;-82
2023/03/31 14:16:24;;;;;;;;;;;;;;;18.24;46.51;99949.31;5050227;28;19917;-81
2023/03/31 14:19:37;;;;;;;;;;;;;;;18.18;46.80;99944.59;5056640;28;19917;-82
2023/03/31 14:22:30;;;;;;;;;;;;;;;18.23;46.76;99941.47;5024389;28;19925;-82
2023/03/31 14:25:35;;;;;;;;;;;;;;;18.18;46.60;99937.13;5032825;28;19917;-82
2023/03/31 14:28:43;;;;;;;;;;;;;;;18.13;46.96;99920.19;5041009;28;19917;-82
2023/03/31 14:31:37;;;;;;;;;;;;;;;17.99;47.43;99922.84;5037271;28;19917;-82
2023/03/31 14:34:49;;;;;;;;;;;;;;;18.05;47.08;99915.78;5040339;28;19921;-81
2023/03/31 14:37:41;;;;;;;;;;;;;;;18.10;46.92;99910.72;5016385;28;20383;-82
2023/03/31 14:40:33;;;;;;;;;;;;;;;18.09;47.16;99891.84;5048409;28;20292;-81
2023/03/31 14:43:24;;;;;;;;;;;;;;;18.03;47.47;99883.16;5028953;28;19921;-82
2023/03/31 14:46:20;;;;;;;;;;;;;;;18.06;47.42;99876.91;5062438;28;19917;-82
2023/03/31 14:49:26;;;;;;;;;;;;;;;18.02;47.57;99875.31;5050312;28;19916;-82
2023/03/31 14:52:22;;;;;;;;;;;;;;;18.04;47.44;99864.69;5057973;28;19917;-83
2023/03/31 14:55:15;;;;;;;;;;;;;;;17.97;47.76;99859.16;5059702;28;19916;-82
2023/03/31 14:58:07;;;;;;;;;;;;;;;18.01;47.47;99851.72;5060604;28;19917;-83
2023/03/31 15:00:57;;;;;;;;;;;;;;;17.92;48.07;99852.88;5049304;28;19921;-82
2023/03/31 15:03:49;;;;;;;;;;;;;;;17.92;48.13;99850.13;5052647;28;19925;-82